createdAt,value
2018-01-07T00:01:28.768Z,101461.39
2018-01-07T00:03:56.379Z,101462.81
2018-01-07T00:06:23.932Z,101470.15
2018-01-07T00:08:51.460Z,101472.09
2018-01-07T00:11:19.041Z,101483.49
2018-01-07T00:13:46.590Z,101478.34
2018-01-07T00:16:14.206Z,101484.48
2018-01-07T00:18:41.758Z,101496.55
2018-01-07T00:21:09.323Z,101494.33
2018-01-07T00:23:36.889Z,101491.55
2018-01-07T00:26:04.404Z,101493.20
2018-01-07T00:28:31.940Z,101493.36
2018-01-07T00:30:59.525Z,101500.11
2018-01-07T00:33:27.295Z,101504.33
2018-01-07T00:35:54.807Z,101501.98
2018-01-07T00:38:22.373Z,101500.22
2018-01-07T00:40:49.887Z,101511.27
2018-01-07T00:43:17.511Z,101508.19
2018-01-07T00:45:45.068Z,101517.86
2018-01-07T00:48:12.720Z,101514.00
2018-01-07T00:50:40.306Z,101519.00
2018-01-07T00:53:07.829Z,101533.41
2018-01-07T00:55:35.383Z,101529.88
2018-01-07T00:58:02.922Z,101542.28
2018-01-07T01:00:30.474Z,101532.20
2018-01-07T01:02:58.144Z,101545.95
2018-01-07T01:05:25.706Z,101552.19
2018-01-07T01:07:53.457Z,101561.36
2018-01-07T01:10:21.083Z,101576.56
2018-01-07T01:12:48.717Z,101583.06
2018-01-07T01:15:16.290Z,101586.13
2018-01-07T01:17:44.117Z,101581.43
2018-01-07T01:20:11.697Z,101592.69
2018-01-07T01:22:39.230Z,101603.17
2018-01-07T01:25:06.773Z,101600.33
2018-01-07T01:27:34.330Z,101613.64
2018-01-07T01:30:01.924Z,101614.34
2018-01-07T01:32:29.655Z,101615.53
2018-01-07T01:34:57.205Z,101625.43
2018-01-07T01:37:24.716Z,101624.23
2018-01-07T01:39:52.287Z,101628.05
2018-01-07T01:42:19.879Z,101638.23
2018-01-07T01:44:47.425Z,101635.73
2018-01-07T01:47:15.010Z,101638.21
2018-01-07T01:49:42.684Z,101637.47
2018-01-07T01:52:10.224Z,101639.92
2018-01-07T01:54:37.782Z,101648.83
2018-01-07T01:57:05.369Z,101647.86
2018-01-07T01:59:33.057Z,101657.02
2018-01-07T02:02:00.588Z,101656.95
2018-01-07T02:04:28.196Z,101658.48
2018-01-07T02:06:55.758Z,101669.53
2018-01-07T02:09:23.517Z,101668.84
2018-01-07T02:11:51.106Z,101679.23
2018-01-07T02:14:18.691Z,101674.39
2018-01-07T02:16:46.254Z,101675.88
2018-01-07T02:19:13.827Z,101675.81
2018-01-07T02:21:41.631Z,101678.13
2018-01-07T02:24:09.293Z,101684.45
2018-01-07T02:26:36.860Z,101688.59
2018-01-07T02:29:04.518Z,101687.09
2018-01-07T02:31:32.078Z,101691.31
2018-01-07T02:33:59.654Z,101685.20
2018-01-07T02:36:27.215Z,101687.82
2018-01-07T02:38:54.807Z,101690.33
2018-01-07T02:41:22.412Z,101702.50
2018-01-07T02:43:49.988Z,101708.55
2018-01-07T02:46:17.547Z,101708.25
2018-01-07T02:48:45.111Z,101704.94
2018-01-07T02:51:12.703Z,101707.95
2018-01-07T02:53:40.379Z,101709.66
2018-01-07T02:56:07.910Z,101717.50
2018-01-07T02:58:35.429Z,101721.55
2018-01-07T03:01:03.006Z,101724.77
2018-01-07T03:03:30.585Z,101732.41
2018-01-07T03:05:58.096Z,101735.30
2018-01-07T03:08:25.685Z,101734.40
2018-01-07T03:10:53.263Z,101750.41
2018-01-07T03:13:20.820Z,101749.90
2018-01-07T03:15:48.354Z,101752.20
2018-01-07T03:18:15.903Z,101758.23
2018-01-07T03:20:43.514Z,101766.56
2018-01-07T03:23:11.249Z,101757.92
2018-01-07T03:25:39.267Z,101760.75
2018-01-07T03:28:06.823Z,101765.36
2018-01-07T03:30:34.631Z,101768.66
2018-01-07T03:33:02.161Z,101771.70
2018-01-07T03:35:29.711Z,101770.27
2018-01-07T03:37:57.512Z,101771.38
2018-01-07T03:40:25.070Z,101774.78
2018-01-07T03:42:52.863Z,101776.49
2018-01-07T03:45:20.422Z,101781.50
2018-01-07T03:47:47.953Z,101785.17
2018-01-07T03:50:15.685Z,101799.16
2018-01-07T03:52:43.216Z,101788.81
2018-01-07T03:55:10.832Z,101794.31
2018-01-07T03:57:39.419Z,101796.05
2018-01-07T04:00:07.206Z,101802.56
2018-01-07T04:02:34.766Z,101806.37
2018-01-07T04:05:02.448Z,101807.17
2018-01-07T04:07:30.008Z,101815.09
2018-01-07T04:09:57.558Z,101820.09
2018-01-07T04:12:25.380Z,101827.30
2018-01-07T04:14:52.901Z,101836.95
2018-01-07T04:17:20.452Z,101830.99
2018-01-07T04:19:48.011Z,101823.56
2018-01-07T04:22:15.823Z,101831.02
2018-01-07T04:24:43.349Z,101836.52
2018-01-07T04:27:11.010Z,101836.30
2018-01-07T04:29:38.591Z,101836.82
2018-01-07T04:32:06.239Z,101839.50
2018-01-07T04:34:33.797Z,101840.41
2018-01-07T04:37:01.309Z,101856.07
2018-01-07T04:39:28.853Z,101858.85
2018-01-07T04:41:56.403Z,101861.86
2018-01-07T04:44:23.982Z,101859.55
2018-01-07T04:46:51.663Z,101864.04
2018-01-07T04:49:19.223Z,101867.25
2018-01-07T04:51:46.812Z,101872.84
2018-01-07T04:54:14.344Z,101887.45
2018-01-07T04:56:41.900Z,101889.44
2018-01-07T04:59:09.411Z,101898.66
2018-01-07T05:01:36.978Z,101901.61
2018-01-07T05:04:04.582Z,101908.09
2018-01-07T05:06:32.158Z,101912.61
2018-01-07T05:08:59.702Z,101918.25
2018-01-07T05:11:27.229Z,101916.89
2018-01-07T05:13:54.781Z,101922.61
2018-01-07T05:16:22.368Z,101924.31
2018-01-07T05:18:50.044Z,101921.97
2018-01-07T05:21:18.127Z,101925.74
2018-01-07T05:23:46.650Z,101926.60
2018-01-07T05:26:14.240Z,101927.60
2018-01-07T05:28:41.767Z,101924.75
2018-01-07T05:31:09.444Z,101928.77
2018-01-07T05:33:37.174Z,101936.78
2018-01-07T05:36:04.687Z,101929.63
2018-01-07T05:38:32.278Z,101940.11
2018-01-07T05:40:59.855Z,101944.12
2018-01-07T05:43:27.438Z,101953.05
2018-01-07T05:45:54.972Z,101952.23
2018-01-07T05:48:22.537Z,101956.81
2018-01-07T05:50:50.138Z,101957.20
2018-01-07T05:53:17.663Z,101965.37
2018-01-07T05:55:45.217Z,101967.23
2018-01-07T05:58:12.822Z,101984.59
2018-01-07T06:00:40.378Z,101979.68
2018-01-07T06:03:07.926Z,101985.98
2018-01-07T06:05:35.496Z,101991.51
2018-01-07T06:08:03.201Z,101993.62
2018-01-07T06:10:30.716Z,102009.10
2018-01-07T06:12:58.292Z,102016.52
2018-01-07T06:15:25.838Z,102015.47
2018-01-07T06:17:53.418Z,102022.97
2018-01-07T06:20:20.970Z,102025.19
2018-01-07T06:22:48.790Z,102029.34
2018-01-07T06:25:16.298Z,102033.16
2018-01-07T06:27:43.850Z,102026.28
2018-01-07T06:30:11.421Z,102033.06
2018-01-07T06:32:39.001Z,102027.19
2018-01-07T06:35:06.553Z,102027.68
2018-01-07T06:37:34.129Z,102029.48
2018-01-07T06:40:01.727Z,102029.20
2018-01-07T06:42:29.263Z,102041.17
2018-01-07T06:44:56.786Z,102045.22
2018-01-07T06:47:24.300Z,102041.00
2018-01-07T06:49:51.906Z,102050.02
2018-01-07T06:52:19.428Z,102068.26
2018-01-07T06:54:46.935Z,102066.30
2018-01-07T06:57:14.509Z,102068.30
2018-01-07T06:59:42.096Z,102064.53
2018-01-07T07:02:09.627Z,102078.91
2018-01-07T07:04:37.173Z,102091.88
2018-01-07T07:07:04.785Z,102090.73
2018-01-07T07:09:32.341Z,102094.67
2018-01-07T07:11:59.854Z,102103.09
2018-01-07T07:14:27.435Z,102107.87
2018-01-07T07:16:55.013Z,102115.25
2018-01-07T07:19:22.551Z,102114.34
2018-01-07T07:21:50.125Z,102118.88
2018-01-07T07:24:17.678Z,102125.86
2018-01-07T07:26:45.204Z,102131.13
2018-01-07T07:29:12.773Z,102137.58
2018-01-07T07:31:40.292Z,102151.45
2018-01-07T07:34:07.831Z,102158.36
2018-01-07T07:36:35.358Z,102156.44
2018-01-07T07:39:02.913Z,102164.66
2018-01-07T07:41:30.711Z,102177.56
2018-01-07T07:43:58.271Z,102173.81
2018-01-07T07:46:25.826Z,102184.55
2018-01-07T07:48:53.412Z,102184.20
2018-01-07T07:51:20.957Z,102187.55
2018-01-07T07:53:48.534Z,102195.83
2018-01-07T07:56:16.144Z,102195.34
2018-01-07T07:58:43.724Z,102202.00
2018-01-07T08:01:11.266Z,102210.81
2018-01-07T08:03:38.832Z,102219.16
2018-01-07T08:06:06.413Z,102228.80
2018-01-07T08:08:34.218Z,102223.16
2018-01-07T08:11:01.809Z,102228.03
2018-01-07T08:13:29.329Z,102231.91
2018-01-07T08:15:56.895Z,102244.22
2018-01-07T08:18:24.453Z,102254.73
2018-01-07T08:20:52.048Z,102260.35
2018-01-07T08:23:19.634Z,102257.37
2018-01-07T08:25:47.183Z,102252.78
2018-01-07T08:28:14.792Z,102259.05
2018-01-07T08:30:42.304Z,102261.37
2018-01-07T08:33:09.824Z,102273.87
2018-01-07T08:35:37.528Z,102270.47
2018-01-07T08:38:05.098Z,102277.87
2018-01-07T08:40:32.871Z,102282.41
2018-01-07T08:43:00.650Z,102288.00
2018-01-07T08:45:28.195Z,102287.32
2018-01-07T08:47:55.702Z,102287.08
2018-01-07T08:50:23.300Z,102289.09
2018-01-07T08:52:50.815Z,102286.09
2018-01-07T08:55:18.368Z,102278.58
2018-01-07T08:57:45.950Z,102283.20
2018-01-07T09:00:13.531Z,102286.59
2018-01-07T09:02:41.110Z,102284.35
2018-01-07T09:05:08.672Z,102280.84
2018-01-07T09:07:36.225Z,102289.14
2018-01-07T09:10:03.816Z,102294.34
2018-01-07T09:12:31.365Z,102292.55
2018-01-07T09:14:59.097Z,102300.16
2018-01-07T09:17:26.682Z,102305.77
2018-01-07T09:19:54.266Z,102294.52
2018-01-07T09:22:21.951Z,102306.68
2018-01-07T09:24:49.462Z,102312.08
2018-01-07T09:27:16.981Z,102310.19
2018-01-07T09:29:44.546Z,102317.48
2018-01-07T09:32:12.079Z,102306.00
2018-01-07T09:34:39.658Z,102311.87
2018-01-07T09:37:07.213Z,102329.08
2018-01-07T09:39:34.788Z,102326.94
2018-01-07T09:42:02.370Z,102332.47
2018-01-07T09:44:29.918Z,102330.23
2018-01-07T09:46:57.505Z,102338.95
2018-01-07T09:49:25.007Z,102332.03
2018-01-07T09:51:52.554Z,102343.64
2018-01-07T09:54:20.130Z,102342.62
2018-01-07T09:56:47.669Z,102340.72
2018-01-07T09:59:15.212Z,102336.00
2018-01-07T10:01:42.840Z,102344.82
2018-01-07T10:04:10.399Z,102341.90
2018-01-07T10:06:37.915Z,102334.03
2018-01-07T10:09:05.698Z,102340.88
2018-01-07T10:11:33.215Z,102343.70
2018-01-07T10:14:00.763Z,102343.13
2018-01-07T10:16:28.286Z,102343.61
2018-01-07T10:18:55.835Z,102340.84
2018-01-07T10:21:23.403Z,102335.20
2018-01-07T10:23:50.900Z,102340.45
2018-01-07T10:26:18.527Z,102354.90
2018-01-07T10:28:46.059Z,102343.06
2018-01-07T10:31:13.569Z,102334.70
2018-01-07T10:33:41.152Z,102340.08
2018-01-07T10:36:08.664Z,102350.11
2018-01-07T10:38:36.228Z,102359.58
2018-01-07T10:41:03.760Z,102338.91
2018-01-07T10:43:32.471Z,102350.07
2018-01-07T10:46:00.279Z,102356.44
2018-01-07T10:48:27.841Z,102349.86
2018-01-07T10:50:55.426Z,102352.84
2018-01-07T10:53:22.970Z,102343.48
2018-01-07T10:55:50.625Z,102345.55
2018-01-07T10:58:18.165Z,102356.53
2018-01-07T11:00:51.706Z,102365.80
2018-01-07T11:03:19.259Z,102360.57
2018-01-07T11:05:46.839Z,102365.83
2018-01-07T11:08:14.410Z,102374.91
2018-01-07T11:10:41.958Z,102374.53
2018-01-07T11:13:09.637Z,102370.52
2018-01-07T11:15:37.165Z,102374.31
2018-01-07T11:18:04.710Z,102366.87
2018-01-07T11:20:32.289Z,102366.70
2018-01-07T11:22:59.960Z,102364.63
2018-01-07T11:25:27.488Z,102370.72
2018-01-07T11:27:55.107Z,102378.28
2018-01-07T11:30:22.688Z,102374.71
2018-01-07T11:32:50.307Z,102372.91
2018-01-07T11:35:18.032Z,102377.38
2018-01-07T11:37:45.597Z,102380.95
2018-01-07T11:40:13.170Z,102377.33
2018-01-07T11:42:40.684Z,102375.78
2018-01-07T11:45:08.238Z,102365.52
2018-01-07T11:47:35.853Z,102377.73
2018-01-07T11:50:03.375Z,102365.94
2018-01-07T11:52:31.039Z,102365.06
2018-01-07T11:54:58.746Z,102361.73
2018-01-07T11:57:26.495Z,102359.25
2018-01-07T11:59:54.163Z,102367.44
2018-01-07T12:02:21.731Z,102364.27
2018-01-07T12:04:49.290Z,102355.95
2018-01-07T12:07:16.838Z,102361.51
2018-01-07T12:09:44.482Z,102365.38
2018-01-07T12:12:12.028Z,102365.13
2018-01-07T12:14:39.633Z,102365.36
2018-01-07T12:17:07.393Z,102365.05
2018-01-07T12:19:34.943Z,102370.17
2018-01-07T12:22:02.738Z,102365.11
2018-01-07T12:24:30.294Z,102372.00
2018-01-07T12:26:57.804Z,102359.78
2018-01-07T12:29:25.365Z,102363.36
2018-01-07T12:31:52.931Z,102375.17
2018-01-07T12:34:20.477Z,102378.54
2018-01-07T12:36:48.039Z,102364.86
2018-01-07T12:39:15.617Z,102367.64
2018-01-07T12:41:43.166Z,102370.34
2018-01-07T12:44:10.720Z,102377.88
2018-01-07T12:46:38.293Z,102367.69
2018-01-07T12:49:05.860Z,102362.70
2018-01-07T12:51:33.514Z,102364.61
2018-01-07T12:54:01.076Z,102358.87
2018-01-07T12:56:28.863Z,102360.93
2018-01-07T12:58:56.384Z,102361.34
2018-01-07T13:01:23.964Z,102344.50
2018-01-07T13:03:51.523Z,102340.64
2018-01-07T13:06:19.089Z,102339.64
2018-01-07T13:08:46.730Z,102347.53
2018-01-07T13:11:14.311Z,102339.09
2018-01-07T13:13:41.825Z,102334.00
2018-01-07T13:16:09.345Z,102343.28
2018-01-07T13:18:36.917Z,102329.48
2018-01-07T13:21:04.497Z,102326.50
2018-01-07T13:23:32.160Z,102322.52
2018-01-07T13:25:59.738Z,102309.19
2018-01-07T13:28:27.304Z,102312.81
2018-01-07T13:30:54.854Z,102318.89
2018-01-07T13:33:22.664Z,102325.06
2018-01-07T13:35:50.238Z,102325.58
2018-01-07T13:38:17.809Z,102322.30
2018-01-07T13:40:45.374Z,102314.19
2018-01-07T13:43:12.921Z,102317.70
2018-01-07T13:45:40.538Z,102324.95
2018-01-07T13:48:08.155Z,102328.06
2018-01-07T13:50:35.665Z,102316.86
2018-01-07T13:53:03.225Z,102329.94
2018-01-07T13:55:30.825Z,102333.06
2018-01-07T13:57:58.380Z,102335.39
2018-01-07T14:00:25.903Z,102336.25
2018-01-07T14:02:53.644Z,102335.65
2018-01-07T14:05:21.232Z,102335.59
2018-01-07T14:07:48.768Z,102340.94
2018-01-07T14:10:16.318Z,102340.99
2018-01-07T14:12:44.079Z,102340.98
2018-01-07T14:15:11.715Z,102344.16
2018-01-07T14:17:39.226Z,102342.75
2018-01-07T14:20:06.764Z,102346.45
2018-01-07T14:22:34.330Z,102348.17
2018-01-07T14:25:01.874Z,102345.47
2018-01-07T14:27:29.408Z,102348.13
2018-01-07T14:29:56.984Z,102348.53
2018-01-07T14:32:24.730Z,102341.09
2018-01-07T14:34:52.400Z,102351.84
2018-01-07T14:37:19.973Z,102331.44
2018-01-07T14:39:47.521Z,102347.37
2018-01-07T14:42:15.135Z,102341.93
2018-01-07T14:44:42.686Z,102342.03
2018-01-07T14:47:10.259Z,102339.37
2018-01-07T14:49:37.825Z,102345.14
2018-01-07T14:52:05.618Z,102338.40
2018-01-07T14:54:33.179Z,102338.56
2018-01-07T14:57:00.701Z,102335.43
2018-01-07T14:59:28.299Z,102343.72
2018-01-07T15:01:55.902Z,102340.30
2018-01-07T15:04:23.514Z,102337.43
2018-01-07T15:06:51.050Z,102341.10
2018-01-07T15:09:18.574Z,102338.59
2018-01-07T15:11:46.169Z,102343.45
2018-01-07T15:14:13.717Z,102340.72
2018-01-07T15:16:41.319Z,102338.67
2018-01-07T15:19:08.836Z,102338.16
2018-01-07T15:21:36.391Z,102339.05
2018-01-07T15:24:03.962Z,102348.59
2018-01-07T15:26:31.532Z,102348.83
2018-01-07T15:28:59.204Z,102351.78
2018-01-07T15:31:26.990Z,102360.90
2018-01-07T15:33:54.769Z,102360.16
2018-01-07T15:36:22.275Z,102356.52
2018-01-07T15:38:50.013Z,102357.02
2018-01-07T15:41:17.568Z,102360.03
2018-01-07T15:43:45.162Z,102362.84
2018-01-07T15:46:12.830Z,102364.70
2018-01-07T15:48:40.363Z,102367.19
2018-01-07T15:51:07.932Z,102358.53
2018-01-07T15:53:35.482Z,102372.21
2018-01-07T15:56:03.035Z,102368.57
2018-01-07T15:58:30.602Z,102369.81
2018-01-07T16:00:58.267Z,102371.31
2018-01-07T16:03:25.821Z,102374.05
2018-01-07T16:05:53.414Z,102378.84
2018-01-07T16:08:20.988Z,102375.38
2018-01-07T16:10:48.551Z,102384.23
2018-01-07T16:13:16.138Z,102376.84
2018-01-07T16:15:43.917Z,102381.10
2018-01-07T16:18:11.485Z,102385.52
2018-01-07T16:20:39.038Z,102392.84
2018-01-07T16:23:06.644Z,102385.64
2018-01-07T16:25:34.221Z,102387.75
2018-01-07T16:28:01.772Z,102393.65
2018-01-07T16:30:29.619Z,102400.70
2018-01-07T16:32:57.170Z,102398.63
2018-01-07T16:35:25.321Z,102394.45
2018-01-07T16:37:53.098Z,102394.89
2018-01-07T16:40:20.875Z,102402.22
2018-01-07T16:42:48.445Z,102399.92
2018-01-07T16:45:16.003Z,102389.20
2018-01-07T16:47:43.623Z,102393.62
2018-01-07T16:50:11.097Z,102388.55
2018-01-07T16:52:38.671Z,102389.17
2018-01-07T16:55:06.187Z,102395.11
2018-01-07T16:57:33.791Z,102395.78
2018-01-07T17:00:01.347Z,102396.37
2018-01-07T17:02:29.028Z,102398.27
2018-01-07T17:04:56.661Z,102393.80
2018-01-07T17:07:24.190Z,102392.36
2018-01-07T17:09:51.707Z,102401.09
2018-01-07T17:12:19.315Z,102406.92
2018-01-07T17:14:47.104Z,102412.69
2018-01-07T17:17:14.627Z,102405.27
2018-01-07T17:19:42.244Z,102403.95
2018-01-07T17:22:09.793Z,102415.91
2018-01-07T17:24:37.345Z,102406.58
2018-01-07T17:27:04.981Z,102411.08
2018-01-07T17:29:32.565Z,102416.05
2018-01-07T17:32:00.088Z,102417.20
2018-01-07T17:34:27.784Z,102417.33
2018-01-07T17:36:55.334Z,102421.78
2018-01-07T17:39:22.890Z,102418.75
2018-01-07T17:41:50.502Z,102414.25
2018-01-07T17:44:18.289Z,102415.63
2018-01-07T17:46:45.806Z,102427.59
2018-01-07T17:49:13.399Z,102419.38
2018-01-07T17:51:41.068Z,102431.58
2018-01-07T17:54:08.655Z,102430.16
2018-01-07T17:56:36.459Z,102438.79
2018-01-07T17:59:04.018Z,102444.66
2018-01-07T18:01:31.689Z,102444.96
2018-01-07T18:03:59.244Z,102451.99
2018-01-07T18:06:26.769Z,102445.36
2018-01-07T18:08:54.341Z,102459.52
2018-01-07T18:11:21.994Z,102464.91
2018-01-07T18:13:49.776Z,102464.99
2018-01-07T18:16:17.658Z,102465.30
2018-01-07T18:18:45.342Z,102448.69
2018-01-07T18:21:13.004Z,102458.97
2018-01-07T18:23:40.686Z,102465.59
2018-01-07T18:26:08.231Z,102459.97
2018-01-07T18:28:35.773Z,102461.39
2018-01-07T18:31:03.606Z,102458.69
2018-01-07T18:33:31.126Z,102462.01
2018-01-07T18:35:58.687Z,102458.48
2018-01-07T18:38:26.241Z,102459.78
2018-01-07T18:40:54.004Z,102464.64
2018-01-07T18:43:21.586Z,102456.11
2018-01-07T18:45:49.142Z,102477.61
2018-01-07T18:48:16.706Z,102466.20
2018-01-07T18:50:44.323Z,102477.30
2018-01-07T18:53:11.969Z,102476.33
2018-01-07T18:55:39.533Z,102474.84
2018-01-07T18:58:07.087Z,102474.53
2018-01-07T19:00:34.613Z,102484.86
2018-01-07T19:03:02.128Z,102483.33
2018-01-07T19:05:29.705Z,102479.91
2018-01-07T19:07:57.273Z,102481.72
2018-01-07T19:10:24.831Z,102482.52
2018-01-07T19:12:52.429Z,102479.61
2018-01-07T19:15:19.986Z,102479.62
2018-01-07T19:17:47.802Z,102477.66
2018-01-07T19:20:15.465Z,102468.89
2018-01-07T19:22:43.143Z,102481.42
2018-01-07T19:25:10.656Z,102483.53
2018-01-07T19:27:38.239Z,102480.84
2018-01-07T19:30:05.797Z,102484.83
2018-01-07T19:32:33.650Z,102476.12
2018-01-07T19:35:01.186Z,102468.00
2018-01-07T19:37:28.739Z,102478.33
2018-01-07T19:39:56.320Z,102470.79
2018-01-07T19:42:23.893Z,102470.44
2018-01-07T19:44:51.713Z,102482.73
2018-01-07T19:47:19.340Z,102470.44
2018-01-07T19:49:47.009Z,102470.44
2018-01-07T19:52:14.815Z,102483.23
2018-01-07T19:54:42.573Z,102476.82
2018-01-07T19:57:10.193Z,102479.28
2018-01-07T19:59:38.074Z,102484.54
2018-01-07T20:02:05.639Z,102481.13
2018-01-07T20:04:33.427Z,102491.55
2018-01-07T20:07:01.033Z,102482.87
2018-01-07T20:09:28.740Z,102489.84
2018-01-07T20:11:56.660Z,102492.94
2018-01-07T20:14:24.433Z,102488.72
2018-01-07T20:16:52.169Z,102497.83
2018-01-07T20:19:19.987Z,102494.41
2018-01-07T20:21:47.851Z,102487.81
2018-01-07T20:24:15.543Z,102491.08
2018-01-07T20:26:43.157Z,102492.70
2018-01-07T20:29:11.003Z,102500.77
2018-01-07T20:31:38.527Z,102497.19
2018-01-07T20:34:06.234Z,102495.16
2018-01-07T20:36:34.028Z,102486.69
2018-01-07T20:39:01.801Z,102495.47
2018-01-07T20:41:29.367Z,102493.77
2018-01-07T20:43:57.038Z,102487.03
2018-01-07T20:46:24.663Z,102495.73
2018-01-07T20:48:52.197Z,102496.28
2018-01-07T20:51:19.756Z,102494.27
2018-01-07T20:53:47.430Z,102491.33
2018-01-07T20:56:14.941Z,102491.11
2018-01-07T20:58:42.535Z,102488.99
2018-01-07T21:01:10.171Z,102490.76
2018-01-07T21:03:37.686Z,102491.42
2018-01-07T21:06:05.258Z,102489.94
2018-01-07T21:08:33.469Z,102497.61
2018-01-07T21:11:01.026Z,102488.24
2018-01-07T21:13:28.633Z,102495.81
2018-01-07T21:15:56.181Z,102492.95
2018-01-07T21:18:23.741Z,102493.12
2018-01-07T21:20:51.310Z,102502.95
2018-01-07T21:23:19.045Z,102494.25
2018-01-07T21:25:46.621Z,102495.41
2018-01-07T21:28:14.184Z,102494.33
2018-01-07T21:30:41.753Z,102489.12
2018-01-07T21:33:09.543Z,102490.11
2018-01-07T21:35:37.114Z,102497.42
2018-01-07T21:38:04.637Z,102496.55
2018-01-07T21:40:32.172Z,102500.27
2018-01-07T21:42:59.713Z,102506.46
2018-01-07T21:45:27.512Z,102503.69
2018-01-07T21:47:55.065Z,102497.35
2018-01-07T21:50:22.591Z,102503.45
2018-01-07T21:52:50.157Z,102496.77
2018-01-07T21:55:17.795Z,102499.12
2018-01-07T21:57:45.411Z,102499.77
2018-01-07T22:03:27.486Z,102492.62
2018-01-07T22:05:55.062Z,102494.09
2018-01-07T22:08:22.583Z,102488.80
2018-01-07T22:10:50.190Z,102493.75
2018-01-07T22:13:17.741Z,102479.44
2018-01-07T22:15:45.473Z,102480.77
2018-01-07T22:18:13.126Z,102475.62
2018-01-07T22:20:40.637Z,102480.01
2018-01-07T22:23:08.312Z,102478.08
2018-01-07T22:25:35.861Z,102474.80
2018-01-07T22:28:03.461Z,102479.52
2018-01-07T22:30:31.020Z,102481.80
2018-01-07T22:32:58.713Z,102481.56
2018-01-07T22:35:26.255Z,102467.02
2018-01-07T22:37:53.814Z,102473.98
2018-01-07T22:40:21.426Z,102469.62
2018-01-07T22:42:48.996Z,102475.21
2018-01-07T22:45:16.584Z,102472.20
2018-01-07T22:47:49.806Z,102474.47
2018-01-07T22:50:17.546Z,102469.61
2018-01-07T22:52:45.131Z,102456.04
2018-01-07T22:55:12.647Z,102457.42
2018-01-07T22:57:40.253Z,102462.70
2018-01-07T23:00:07.777Z,102454.50
2018-01-07T23:02:35.390Z,102452.11
2018-01-07T23:05:02.987Z,102451.48
2018-01-07T23:07:30.512Z,102441.16
2018-01-07T23:09:58.135Z,102445.45
2018-01-07T23:12:25.699Z,102434.48
2018-01-07T23:14:53.249Z,102440.98
2018-01-07T23:17:20.869Z,102442.69
2018-01-07T23:19:48.482Z,102437.16
2018-01-07T23:22:16.163Z,102441.15
2018-01-07T23:24:43.709Z,102436.36
2018-01-07T23:27:11.296Z,102444.25
2018-01-07T23:29:38.867Z,102438.64
2018-01-07T23:32:06.533Z,102437.06
2018-01-07T23:34:34.085Z,102448.86
2018-01-07T23:37:01.595Z,102445.67
2018-01-07T23:39:29.220Z,102441.80
2018-01-07T23:41:56.768Z,102445.03
2018-01-07T23:44:24.382Z,102445.83
2018-01-07T23:46:52.102Z,102440.31
2018-01-07T23:49:19.680Z,102433.24
2018-01-07T23:51:47.359Z,102427.89
2018-01-07T23:54:14.935Z,102429.75
2018-01-07T23:56:42.460Z,102429.34
2018-01-07T23:59:10.034Z,102429.09
